createdAt,value
2018-04-15T00:01:18.787Z,22.70
2018-04-15T00:03:46.179Z,22.10
2018-04-15T00:06:13.576Z,20.97
2018-04-15T00:08:40.962Z,20.53
2018-04-15T00:11:08.359Z,20.67
2018-04-15T00:13:35.739Z,20.70
2018-04-15T00:16:03.126Z,19.70
2018-04-15T00:18:30.511Z,20.30
2018-04-15T00:20:57.907Z,20.40
2018-04-15T00:23:25.331Z,19.00
2018-04-15T00:25:52.791Z,18.73
2018-04-15T00:28:20.179Z,19.10
2018-04-15T00:30:47.979Z,19.33
2018-04-15T00:33:15.373Z,19.93
2018-04-15T00:35:42.759Z,19.50
2018-04-15T00:38:10.151Z,19.73
2018-04-15T00:40:37.561Z,19.60
2018-04-15T00:43:04.951Z,20.43
2018-04-15T00:45:32.335Z,20.03
2018-04-15T00:47:59.727Z,20.30
2018-04-15T00:50:27.115Z,20.40
2018-04-15T00:52:54.579Z,20.07
2018-04-15T00:55:21.969Z,20.50
2018-04-15T00:57:49.363Z,21.43
2018-04-15T01:00:16.754Z,20.50
2018-04-15T01:02:44.174Z,22.40
2018-04-15T01:05:11.567Z,20.93
2018-04-15T01:07:38.960Z,20.47
2018-04-15T01:10:06.350Z,20.87
2018-04-15T01:12:33.738Z,22.80
2018-04-15T01:15:01.139Z,23.83
2018-04-15T01:17:28.532Z,21.47
2018-04-15T01:19:55.922Z,21.57
2018-04-15T01:22:23.311Z,23.10
2018-04-15T01:24:50.711Z,23.73
2018-04-15T01:27:18.096Z,21.50
2018-04-15T01:29:45.494Z,21.73
2018-04-15T01:32:12.887Z,22.40
2018-04-15T01:34:40.287Z,22.70
2018-04-15T01:37:07.663Z,22.87
2018-04-15T01:39:35.063Z,21.63
2018-04-15T01:42:02.459Z,22.27
2018-04-15T01:44:29.846Z,23.63
2018-04-15T01:46:57.244Z,22.70
2018-04-15T01:49:24.634Z,23.13
2018-04-15T01:51:52.027Z,22.80
2018-04-15T01:54:19.419Z,22.30
2018-04-15T01:56:46.819Z,24.87
2018-04-15T01:59:14.203Z,22.90
2018-04-15T02:01:41.599Z,22.50
2018-04-15T02:04:08.989Z,24.70
2018-04-15T02:06:36.564Z,25.50
2018-04-15T02:09:03.947Z,24.10
2018-04-15T02:11:31.336Z,25.20
2018-04-15T02:13:58.734Z,26.73
2018-04-15T02:16:26.123Z,26.07
2018-04-15T02:18:53.522Z,27.23
2018-04-15T02:21:20.911Z,27.50
2018-04-15T02:23:48.307Z,28.00
2018-04-15T02:26:15.692Z,28.03
2018-04-15T02:28:43.088Z,27.50
2018-04-15T02:31:10.475Z,28.07
2018-04-15T02:33:37.883Z,29.70
2018-04-15T02:36:05.265Z,30.73
2018-04-15T02:38:32.659Z,29.50
2018-04-15T02:41:00.056Z,28.40
2018-04-15T02:43:27.459Z,28.13
2018-04-15T02:45:54.844Z,30.13
2018-04-15T02:48:22.311Z,28.27
2018-04-15T02:50:49.703Z,28.87
2018-04-15T02:53:17.093Z,28.20
2018-04-15T02:55:44.487Z,29.53
2018-04-15T02:58:11.875Z,29.73
2018-04-15T03:00:39.275Z,27.60
2018-04-15T03:03:06.720Z,28.13
2018-04-15T03:05:34.118Z,31.50
2018-04-15T03:08:01.504Z,29.00
2018-04-15T03:10:28.902Z,27.10
2018-04-15T03:12:56.747Z,29.17
2018-04-15T03:15:24.138Z,28.70
2018-04-15T03:17:51.603Z,29.90
2018-04-15T03:20:19.007Z,26.57
2018-04-15T03:22:46.403Z,27.20
2018-04-15T03:25:13.790Z,29.20
2018-04-15T03:27:41.634Z,29.40
2018-04-15T03:30:09.027Z,27.77
2018-04-15T03:32:36.422Z,26.50
2018-04-15T03:35:03.811Z,28.13
2018-04-15T03:37:31.198Z,29.80
2018-04-15T03:39:58.583Z,29.67
2018-04-15T03:42:25.974Z,28.87
2018-04-15T03:44:53.367Z,27.70
2018-04-15T03:47:20.751Z,28.63
2018-04-15T03:49:48.139Z,28.27
2018-04-15T03:52:15.546Z,30.20
2018-04-15T03:54:42.926Z,27.97
2018-04-15T03:57:10.311Z,28.30
2018-04-15T03:59:37.748Z,30.60
2018-04-15T04:02:05.143Z,29.50
2018-04-15T04:04:32.531Z,31.20
2018-04-15T04:06:59.919Z,29.70
2018-04-15T04:09:27.359Z,29.47
2018-04-15T04:11:54.750Z,29.00
2018-04-15T04:14:22.143Z,27.00
2018-04-15T04:16:49.538Z,28.37
2018-04-15T04:19:28.715Z,27.20
2018-04-15T04:22:07.886Z,28.50
2018-04-15T04:27:42.218Z,27.20
2018-04-15T04:30:09.611Z,25.97
2018-04-15T04:32:37.003Z,27.67
2018-04-15T04:35:04.418Z,29.23
2018-04-15T04:37:31.823Z,28.80
2018-04-15T04:39:59.203Z,28.23
2018-04-15T04:42:26.599Z,30.83
2018-04-15T04:44:53.982Z,29.50
2018-04-15T04:47:21.443Z,29.90
2018-04-15T04:49:48.838Z,29.27
2018-04-15T04:52:16.254Z,29.17
2018-04-15T04:54:43.642Z,29.77
2018-04-15T04:57:11.062Z,30.40
2018-04-15T04:59:38.489Z,30.20
2018-04-15T05:02:05.904Z,31.47
2018-04-15T05:04:33.288Z,30.20
2018-04-15T05:07:00.676Z,29.00
2018-04-15T05:09:28.071Z,30.57
2018-04-15T05:11:55.454Z,30.03
2018-04-15T05:14:22.860Z,29.70
2018-04-15T05:16:50.243Z,29.93
2018-04-15T05:19:17.648Z,28.83
2018-04-15T05:21:45.031Z,28.67
2018-04-15T05:24:12.423Z,28.47
2018-04-15T05:26:39.815Z,28.20
2018-04-15T05:29:07.203Z,28.13
2018-04-15T05:31:34.602Z,28.17
2018-04-15T05:34:01.998Z,27.23
2018-04-15T05:36:29.410Z,28.60
2018-04-15T05:38:56.810Z,26.67
2018-04-15T05:41:24.209Z,27.87
2018-04-15T05:43:51.637Z,26.67
2018-04-15T05:46:19.027Z,27.10
2018-04-15T05:48:46.424Z,27.27
2018-04-15T05:51:13.819Z,26.20
2018-04-15T05:53:41.223Z,26.30
2018-04-15T05:56:08.620Z,24.43
2018-04-15T05:58:36.044Z,24.87
2018-04-15T06:01:03.437Z,25.67
2018-04-15T06:03:30.824Z,29.70
2018-04-15T06:05:58.227Z,30.43
2018-04-15T06:08:25.619Z,32.73
2018-04-15T06:10:53.015Z,32.90
2018-04-15T06:13:20.499Z,35.13
2018-04-15T06:15:47.899Z,31.17
2018-04-15T06:18:15.282Z,29.17
2018-04-15T06:20:42.690Z,28.70
2018-04-15T06:23:10.082Z,25.20
2018-04-15T06:25:37.475Z,26.10
2018-04-15T06:28:04.891Z,24.23
2018-04-15T06:30:32.278Z,24.03
2018-04-15T06:32:59.681Z,23.50
2018-04-15T06:35:27.066Z,22.77
2018-04-15T06:37:54.458Z,22.40
2018-04-15T06:40:21.855Z,21.07
2018-04-15T06:42:49.247Z,20.43
2018-04-15T06:45:16.759Z,18.60
2018-04-15T06:47:44.029Z,21.40
2018-04-15T06:50:11.431Z,20.17
2018-04-15T06:52:38.823Z,19.87
2018-04-15T06:55:06.231Z,20.43
2018-04-15T06:57:33.620Z,20.77
2018-04-15T07:00:01.003Z,19.67
2018-04-15T07:02:28.391Z,19.83
2018-04-15T07:04:55.782Z,21.07
2018-04-15T07:07:23.180Z,20.60
2018-04-15T07:09:50.568Z,19.30
2018-04-15T07:12:18.298Z,19.43
2018-04-15T07:14:45.680Z,18.70
2018-04-15T07:17:13.067Z,20.27
2018-04-15T07:19:40.459Z,19.33
2018-04-15T07:22:07.839Z,19.57
2018-04-15T07:24:35.230Z,19.77
2018-04-15T07:27:02.615Z,20.30
2018-04-15T07:29:30.019Z,19.17
2018-04-15T07:31:57.477Z,19.37
2018-04-15T07:34:24.862Z,17.90
2018-04-15T07:36:52.259Z,19.90
2018-04-15T07:39:19.650Z,18.50
2018-04-15T07:41:47.051Z,18.87
2018-04-15T07:44:14.439Z,19.37
2018-04-15T07:46:41.831Z,19.10
2018-04-15T07:49:09.219Z,21.53
2018-04-15T07:51:36.619Z,21.70
2018-04-15T07:54:04.007Z,24.90
2018-04-15T07:56:31.393Z,24.20
2018-04-15T07:58:58.782Z,23.30
2018-04-15T08:01:26.168Z,19.50
2018-04-15T08:03:54.571Z,17.00
2018-04-15T08:06:21.963Z,14.43
2018-04-15T08:08:49.371Z,11.00
2018-04-15T08:11:16.751Z,10.67
2018-04-15T08:13:45.786Z,10.50
2018-04-15T08:16:13.171Z,10.60
2018-04-15T08:18:40.718Z,10.60
2018-04-15T08:21:08.106Z,11.10
2018-04-15T08:23:35.496Z,11.40
2018-04-15T08:26:02.891Z,11.10
2018-04-15T08:28:30.752Z,11.30
2018-04-15T08:30:58.131Z,10.67
2018-04-15T08:33:25.511Z,10.70
2018-04-15T08:35:52.919Z,10.40
2018-04-15T08:38:20.382Z,10.87
2018-04-15T08:40:47.809Z,10.80
2018-04-15T08:43:15.227Z,10.47
2018-04-15T08:45:42.590Z,11.00
2018-04-15T08:48:10.041Z,10.30
2018-04-15T08:50:37.431Z,10.70
2018-04-15T08:53:04.814Z,10.70
2018-04-15T08:55:32.191Z,10.43
2018-04-15T08:57:59.583Z,10.10
2018-04-15T09:00:27.005Z,9.60
2018-04-15T09:02:54.354Z,10.30
2018-04-15T09:05:21.747Z,10.40
2018-04-15T09:07:49.123Z,9.97
2018-04-15T09:10:16.523Z,10.10
2018-04-15T09:12:43.894Z,10.20
2018-04-15T09:15:11.283Z,10.40
2018-04-15T09:17:38.666Z,9.90
2018-04-15T09:20:06.062Z,9.83
2018-04-15T09:22:33.443Z,9.30
2018-04-15T09:25:00.815Z,9.23
2018-04-15T09:27:28.194Z,9.10
2018-04-15T09:29:55.570Z,9.93
2018-04-15T09:32:22.963Z,9.33
2018-04-15T09:34:50.335Z,9.80
2018-04-15T09:37:17.718Z,9.83
2018-04-15T09:39:45.146Z,9.60
2018-04-15T09:42:12.517Z,8.80
2018-04-15T09:44:39.891Z,9.57
2018-04-15T09:47:07.277Z,8.93
2018-04-15T09:49:34.653Z,8.73
2018-04-15T09:52:02.395Z,9.40
2018-04-15T09:54:29.770Z,9.13
2018-04-15T09:56:57.153Z,9.97
2018-04-15T09:59:24.538Z,9.60
2018-04-15T10:01:51.923Z,9.37
2018-04-15T10:04:19.299Z,9.07
2018-04-15T10:06:46.683Z,10.13
2018-04-15T10:09:14.066Z,11.03
2018-04-15T10:11:41.454Z,10.50
2018-04-15T10:14:08.851Z,9.13
2018-04-15T10:16:36.211Z,9.23
2018-04-15T10:19:03.591Z,9.20
2018-04-15T10:21:30.975Z,9.80
2018-04-15T10:23:58.379Z,9.33
2018-04-15T10:26:25.752Z,9.50
2018-04-15T10:28:53.128Z,9.30
2018-04-15T10:31:20.522Z,10.10
2018-04-15T10:33:47.907Z,9.70
2018-04-15T10:36:15.291Z,9.40
2018-04-15T10:38:42.735Z,8.80
2018-04-15T10:41:10.096Z,9.90
2018-04-15T10:43:37.468Z,9.27
2018-04-15T10:46:04.901Z,9.73
2018-04-15T10:48:32.226Z,9.50
2018-04-15T10:50:59.651Z,9.10
2018-04-15T10:53:27.029Z,9.50
2018-04-15T10:55:54.411Z,9.47
2018-04-15T10:58:21.792Z,9.30
2018-04-15T11:00:49.176Z,9.30
2018-04-15T11:03:16.552Z,9.47
2018-04-15T11:05:43.926Z,9.30
2018-04-15T11:08:11.323Z,9.80
2018-04-15T11:10:38.707Z,9.93
2018-04-15T11:13:06.082Z,8.77
2018-04-15T11:15:33.467Z,9.13
2018-04-15T11:18:00.849Z,10.17
2018-04-15T11:20:28.277Z,9.77
2018-04-15T11:22:55.655Z,9.43
2018-04-15T11:25:23.031Z,9.10
2018-04-15T11:27:50.418Z,9.23
2018-04-15T11:30:17.794Z,9.43
2018-04-15T11:32:45.166Z,9.47
2018-04-15T11:35:12.548Z,9.30
2018-04-15T11:37:39.927Z,9.60
2018-04-15T11:40:07.311Z,9.80
2018-04-15T11:42:34.687Z,9.80
2018-04-15T11:45:02.088Z,10.27
2018-04-15T11:47:29.479Z,9.40
2018-04-15T11:49:56.859Z,9.37
2018-04-15T11:52:24.239Z,9.57
2018-04-15T11:54:51.623Z,8.90
2018-04-15T11:57:19.004Z,9.40
2018-04-15T11:59:46.375Z,9.10
2018-04-15T12:02:13.786Z,9.80
2018-04-15T12:04:41.139Z,9.00
2018-04-15T12:07:08.514Z,9.10
2018-04-15T12:09:35.887Z,8.93
2018-04-15T12:12:03.278Z,10.10
2018-04-15T12:14:30.659Z,10.10
2018-04-15T12:16:58.063Z,10.17
2018-04-15T12:19:25.442Z,10.33
2018-04-15T12:21:53.271Z,9.43
2018-04-15T12:24:20.651Z,9.37
2018-04-15T12:26:48.067Z,9.40
2018-04-15T12:29:15.412Z,9.87
2018-04-15T12:31:42.792Z,9.17
2018-04-15T12:34:10.254Z,9.30
2018-04-15T12:36:37.738Z,9.93
2018-04-15T12:39:05.906Z,8.93
2018-04-15T12:41:33.290Z,9.43
2018-04-15T12:44:00.668Z,9.50
2018-04-15T12:46:28.058Z,10.03
2018-04-15T12:48:55.447Z,9.80
2018-04-15T12:51:23.015Z,10.53
2018-04-15T12:53:50.407Z,10.83
2018-04-15T12:56:17.805Z,10.37
2018-04-15T12:58:45.190Z,10.27
2018-04-15T13:01:12.583Z,9.93
2018-04-15T13:03:40.083Z,9.03
2018-04-15T13:06:07.541Z,9.97
2018-04-15T13:08:34.887Z,9.30
2018-04-15T13:11:02.262Z,8.90
2018-04-15T13:13:29.762Z,9.90
2018-04-15T13:15:57.151Z,9.97
2018-04-15T13:18:24.538Z,9.53
2018-04-15T13:20:51.929Z,9.13
2018-04-15T13:23:19.396Z,10.07
2018-04-15T13:25:46.820Z,9.80
2018-04-15T13:28:14.194Z,10.57
2018-04-15T13:30:41.633Z,9.20
2018-04-15T13:33:08.995Z,9.10
2018-04-15T13:35:36.374Z,9.20
2018-04-15T13:38:03.755Z,9.30
2018-04-15T13:40:31.152Z,9.33
2018-04-15T13:42:58.535Z,9.07
2018-04-15T13:45:25.929Z,9.60
2018-04-15T13:47:53.306Z,8.70
2018-04-15T13:50:20.755Z,8.80
2018-04-15T13:52:48.143Z,8.80
2018-04-15T13:55:15.517Z,8.80
2018-04-15T13:57:42.902Z,9.50
2018-04-15T14:00:10.295Z,10.03
2018-04-15T14:02:37.685Z,9.37
2018-04-15T14:05:05.059Z,10.00
2018-04-15T14:07:32.446Z,9.17
2018-04-15T14:09:59.879Z,8.70
2018-04-15T14:12:27.267Z,9.07
2018-04-15T14:14:54.634Z,9.50
2018-04-15T14:17:22.019Z,9.97
2018-04-15T14:19:49.435Z,8.80
2018-04-15T14:22:16.820Z,9.67
2018-04-15T14:24:44.225Z,9.50
2018-04-15T14:27:11.647Z,9.00
2018-04-15T14:29:39.023Z,9.00
2018-04-15T14:32:06.399Z,9.17
2018-04-15T14:34:33.839Z,9.13
2018-04-15T14:37:01.224Z,9.00
2018-04-15T14:39:28.878Z,9.33
2018-04-15T14:41:56.262Z,8.80
2018-04-15T14:44:23.846Z,9.00
2018-04-15T14:46:51.348Z,10.43
2018-04-15T14:49:18.766Z,9.50
2018-04-15T14:51:46.176Z,8.70
2018-04-15T14:54:13.551Z,9.57
2018-04-15T14:56:40.934Z,9.30
2018-04-15T14:59:08.444Z,9.57
2018-04-15T15:01:36.060Z,9.77
2018-04-15T15:04:03.451Z,8.73
2018-04-15T15:06:30.839Z,9.10
2018-04-15T15:08:58.254Z,10.17
2018-04-15T15:11:25.687Z,9.10
2018-04-15T15:13:53.066Z,8.80
2018-04-15T15:16:20.445Z,8.90
2018-04-15T15:18:47.820Z,9.20
2018-04-15T15:21:15.190Z,8.70
2018-04-15T15:23:42.574Z,8.30
2018-04-15T15:26:09.987Z,9.30
2018-04-15T15:28:37.415Z,9.80
2018-04-15T15:31:04.832Z,9.50
2018-04-15T15:33:32.216Z,9.10
2018-04-15T15:35:59.624Z,9.20
2018-04-15T15:38:27.000Z,9.53
2018-04-15T15:40:54.383Z,8.90
2018-04-15T15:43:21.765Z,9.00
2018-04-15T15:45:49.172Z,8.23
2018-04-15T15:48:16.645Z,8.90
2018-04-15T15:50:44.223Z,8.53
2018-04-15T15:53:11.620Z,9.10
2018-04-15T15:55:39.063Z,8.67
2018-04-15T15:58:06.456Z,8.83
2018-04-15T16:00:33.848Z,10.23
2018-04-15T16:03:01.235Z,9.77
2018-04-15T16:05:28.729Z,9.83
2018-04-15T16:07:56.151Z,9.40
2018-04-15T16:10:23.534Z,9.03
2018-04-15T16:12:51.154Z,9.20
2018-04-15T16:15:18.534Z,9.10
2018-04-15T16:17:45.923Z,10.00
2018-04-15T16:20:13.312Z,9.23
2018-04-15T16:22:40.685Z,9.17
2018-04-15T16:25:08.074Z,10.53
2018-04-15T16:27:35.538Z,9.40
2018-04-15T16:30:02.923Z,10.10
2018-04-15T16:32:30.515Z,10.80
2018-04-15T16:34:57.953Z,10.53
2018-04-15T16:37:25.335Z,9.90
2018-04-15T16:39:52.715Z,11.97
2018-04-15T16:42:20.123Z,12.50
2018-04-15T16:44:47.498Z,9.17
2018-04-15T16:47:14.903Z,9.80
2018-04-15T16:49:42.282Z,7.90
2018-04-15T16:52:09.731Z,8.20
2018-04-15T16:54:37.103Z,9.23
2018-04-15T16:57:04.490Z,9.63
2018-04-15T16:59:31.887Z,10.00
2018-04-15T17:01:59.266Z,9.57
2018-04-15T17:04:26.733Z,10.17
2018-04-15T17:06:54.114Z,9.90
2018-04-15T17:09:21.534Z,9.57
2018-04-15T17:11:48.999Z,9.53
2018-04-15T17:14:16.511Z,10.00
2018-04-15T17:16:43.991Z,9.80
2018-04-15T17:19:11.464Z,10.30
2018-04-15T17:21:38.932Z,9.03
2018-04-15T17:24:06.407Z,8.77
2018-04-15T17:26:33.848Z,9.30
2018-04-15T17:29:01.221Z,9.50
2018-04-15T17:31:28.608Z,10.77
2018-04-15T17:33:56.166Z,9.60
2018-04-15T17:36:23.591Z,9.27
2018-04-15T17:38:50.979Z,9.63
2018-04-15T17:41:18.366Z,9.27
2018-04-15T17:43:45.742Z,10.50
2018-04-15T17:46:13.135Z,10.37
2018-04-15T17:48:40.519Z,10.50
2018-04-15T17:51:07.909Z,10.47
2018-04-15T17:53:35.295Z,10.20
2018-04-15T17:56:02.679Z,10.40
2018-04-15T17:58:30.263Z,10.27
2018-04-15T18:00:57.647Z,10.60
2018-04-15T18:03:25.032Z,10.90
2018-04-15T18:05:52.418Z,10.97
2018-04-15T18:08:19.803Z,10.83
2018-04-15T18:10:47.206Z,9.63
2018-04-15T18:13:14.599Z,10.10
2018-04-15T18:15:41.982Z,9.57
2018-04-15T18:18:09.352Z,10.00
2018-04-15T18:20:36.735Z,9.53
2018-04-15T18:23:04.123Z,9.10
2018-04-15T18:25:31.503Z,9.23
2018-04-15T18:27:58.876Z,9.43
2018-04-15T18:30:26.254Z,8.70
2018-04-15T18:32:53.623Z,9.20
2018-04-15T18:35:21.010Z,9.90
2018-04-15T18:37:48.399Z,9.40
2018-04-15T18:40:15.782Z,9.10
2018-04-15T18:42:43.204Z,10.57
2018-04-15T18:45:10.584Z,10.50
2018-04-15T18:47:37.974Z,9.30
2018-04-15T18:50:05.445Z,10.50
2018-04-15T18:52:32.743Z,10.70
2018-04-15T18:55:00.119Z,9.53
2018-04-15T18:57:27.507Z,9.17
2018-04-15T18:59:54.887Z,10.40
2018-04-15T19:02:22.408Z,9.77
2018-04-15T19:04:49.811Z,9.60
2018-04-15T19:07:17.197Z,10.63
2018-04-15T19:09:44.605Z,10.63
2018-04-15T19:12:12.170Z,10.90
2018-04-15T19:14:39.571Z,10.90
2018-04-15T19:17:06.951Z,10.90
2018-04-15T19:19:34.363Z,12.07
2018-04-15T19:22:01.807Z,11.10
2018-04-15T19:24:29.182Z,11.27
2018-04-15T19:26:56.628Z,11.27
2018-04-15T19:29:24.015Z,11.33
2018-04-15T19:31:51.403Z,12.13
2018-04-15T19:34:18.800Z,11.83
2018-04-15T19:36:46.240Z,12.07
2018-04-15T19:39:13.643Z,12.17
2018-04-15T19:41:41.028Z,13.63
2018-04-15T19:44:08.467Z,13.50
2018-04-15T19:46:35.855Z,14.90
2018-04-15T19:49:03.244Z,12.93
2018-04-15T19:51:30.643Z,12.70
2018-04-15T19:53:58.027Z,12.50
2018-04-15T19:56:25.411Z,12.83
2018-04-15T19:58:52.794Z,13.63
2018-04-15T20:01:20.178Z,12.90
2018-04-15T20:03:47.574Z,12.87
2018-04-15T20:06:14.958Z,13.50
2018-04-15T20:08:42.357Z,13.23
2018-04-15T20:11:09.761Z,14.93
2018-04-15T20:13:37.116Z,14.20
2018-04-15T20:16:04.506Z,14.43
2018-04-15T20:18:31.891Z,14.80
2018-04-15T20:20:59.283Z,14.27
2018-04-15T20:23:26.675Z,14.57
2018-04-15T20:25:54.058Z,14.07
2018-04-15T20:28:21.438Z,13.23
2018-04-15T20:30:48.826Z,12.40
2018-04-15T20:33:16.227Z,12.57
2018-04-15T20:35:43.607Z,12.93
2018-04-15T20:38:10.991Z,12.60
2018-04-15T20:40:38.382Z,12.90
2018-04-15T20:43:05.766Z,12.97
2018-04-15T20:45:33.155Z,13.20
2018-04-15T20:48:00.543Z,13.03
2018-04-15T20:50:27.938Z,12.63
2018-04-15T20:52:55.327Z,13.27
2018-04-15T20:55:22.716Z,12.60
2018-04-15T20:57:50.124Z,12.87
2018-04-15T21:00:17.503Z,12.40
2018-04-15T21:02:44.887Z,11.97
2018-04-15T21:05:12.263Z,12.20
2018-04-15T21:07:39.658Z,13.20
2018-04-15T21:10:07.043Z,12.80
2018-04-15T21:12:34.426Z,12.70
2018-04-15T21:15:02.318Z,12.90
2018-04-15T21:17:29.699Z,13.13
2018-04-15T21:19:57.086Z,14.13
2018-04-15T21:22:24.469Z,13.30
2018-04-15T21:24:52.275Z,13.40
2018-04-15T21:27:19.654Z,12.70
2018-04-15T21:29:47.035Z,12.50
2018-04-15T21:32:14.431Z,12.40
2018-04-15T21:34:41.811Z,13.27
2018-04-15T21:37:09.198Z,14.00
2018-04-15T21:39:36.579Z,15.63
2018-04-15T21:42:03.971Z,14.67
2018-04-15T21:44:31.347Z,13.73
2018-04-15T21:46:58.735Z,13.40
2018-04-15T21:49:26.179Z,14.10
2018-04-15T21:51:53.559Z,13.90
2018-04-15T21:54:20.951Z,13.47
2018-04-15T21:56:48.331Z,13.00
2018-04-15T21:59:16.075Z,12.90
2018-04-15T22:01:43.455Z,13.20
2018-04-15T22:04:10.839Z,13.40
2018-04-15T22:06:38.226Z,14.00
2018-04-15T22:09:05.611Z,14.13
2018-04-15T22:11:44.731Z,13.73
2018-04-15T22:14:12.115Z,13.67
2018-04-15T22:16:39.503Z,13.77
2018-04-15T22:19:06.985Z,14.40
2018-04-15T22:21:34.362Z,13.63
2018-04-15T22:24:01.755Z,13.73
2018-04-15T22:26:29.135Z,13.70
2018-04-15T22:28:56.523Z,14.13
2018-04-15T22:31:23.899Z,14.37
2018-04-15T22:33:51.296Z,14.03
2018-04-15T22:36:18.671Z,13.90
2018-04-15T22:38:46.054Z,14.20
2018-04-15T22:41:13.441Z,14.03
2018-04-15T22:43:40.822Z,14.50
2018-04-15T22:46:08.215Z,14.00
2018-04-15T22:48:41.239Z,14.10
2018-04-15T22:51:08.650Z,14.47
2018-04-15T22:53:36.035Z,13.60
2018-04-15T22:56:09.407Z,14.00
2018-04-15T22:58:42.435Z,13.67
2018-04-15T23:01:09.826Z,13.77
2018-04-15T23:03:37.206Z,13.20
2018-04-15T23:06:04.591Z,14.07
2018-04-15T23:08:31.979Z,13.80
2018-04-15T23:10:59.358Z,15.07
2018-04-15T23:13:26.751Z,14.63
2018-04-15T23:15:54.127Z,14.67
2018-04-15T23:18:21.535Z,14.80
2018-04-15T23:20:48.914Z,15.30
2018-04-15T23:23:16.302Z,14.03
2018-04-15T23:25:43.690Z,14.50
2018-04-15T23:28:11.078Z,14.10
2018-04-15T23:30:38.482Z,14.30
2018-04-15T23:33:05.863Z,13.57
2018-04-15T23:35:33.268Z,13.70
2018-04-15T23:38:00.711Z,14.30
2018-04-15T23:40:28.091Z,14.10
2018-04-15T23:42:55.487Z,14.00
2018-04-15T23:45:22.872Z,14.50
2018-04-15T23:47:50.274Z,14.13
2018-04-15T23:50:17.660Z,13.90
2018-04-15T23:52:45.067Z,13.90
2018-04-15T23:55:12.451Z,13.37
2018-04-15T23:57:39.830Z,14.00
